Kelowna Airport
CYLW : rendu visible

Aérodrome :











RETROUVEZ-NOUS SUR...

 
LOGIN :

S'inscrire | Disclaimer

   EN    FR    IT 

 









Légende :    VFR   VFR Marginal   IFR   IFR Intensif   IFR Très Intensif
Visi : 
Plafond : 
>= 8 km
>= 3000ft
5 à 8 km
1000 à 3000 ft
1500m à 5 km
500 à 1000 ft
800 à 1500m
200 à 500 ft
< 800m
< 200 ft
Symboles :   Orages  Brouillard  Fortes neiges  Fortes précipitations  Vent > 20 kt






- Altitude de l'aérodrome : 1409 ft
- Code IATA : YLW


CYLW - Kelowna

DERNIER METAR :
  • 281000Z AUTO 21004KT 9SM OVC100 06/M00 A2987 RMK SLP122

METARs EXPIRÉS :
  • 280900Z AUTO 18003KT 160V270 9SM OVC100 08/M01 A2986 RMK SLP120
  • 280800Z AUTO 19004KT 120V210 9SM OVC120 08/M00 A2986 RMK SLP120

TAF TAF CYLW
Valide du 28 à 07h jusqu'au 28 à 19h UTC


280638Z 2807/2819 15008KT P6SM BKN080 OVC120
BECMG 2817/2819 20012KT RMK FCST BASED ON AUTO OBS. NXT FCST BY 281300Z



MET'MAP, la Météo Aéronautique d'un coup d'oeil ! - Copyright ORBIFLY Décembre 2007 - Disclaimer

ORBIFLY MET'MAP TEAM :

Programmation & Développement : Alexandra Zaïnal
Sur une idée originale de : Baudouin d'Aumeries
Assistance à la programmation : Marc-Olivier Méhu
Soutien technique & logistique : Manuel Goepfert

Contact : metmap@orbifly.com




SOURCES & CREDITS :

   NOAA       Earth
Advisory